createdAt,value
2023-03-15T00:00:53.867Z,2.97
2023-03-15T00:03:20.447Z,2.99
2023-03-15T00:05:49.048Z,3.05
2023-03-15T00:08:15.858Z,3.17
2023-03-15T00:10:43.176Z,3.03
2023-03-15T00:13:10.737Z,3.16
2023-03-15T00:15:45.603Z,3.05
2023-03-15T00:18:13.065Z,2.90
2023-03-15T00:20:39.516Z,3.02
2023-03-15T00:23:06.072Z,3.11
2023-03-15T00:25:33.186Z,3.08
2023-03-15T00:27:59.619Z,3.04
2023-03-15T00:30:27.384Z,3.15
2023-03-15T00:32:54.007Z,3.09
2023-03-15T00:35:21.071Z,3.02
2023-03-15T00:37:47.943Z,3.23
2023-03-15T00:40:14.599Z,3.22
2023-03-15T00:42:42.124Z,3.24
2023-03-15T00:45:08.954Z,3.33
2023-03-15T00:47:35.440Z,3.37
2023-03-15T00:50:01.920Z,3.08
2023-03-15T00:52:35.854Z,2.98
2023-03-15T00:55:04.853Z,2.99
2023-03-15T00:57:34.546Z,3.19
2023-03-15T01:00:08.738Z,3.12
2023-03-15T01:02:37.285Z,3.15
2023-03-15T01:05:08.597Z,3.10
2023-03-15T01:07:35.683Z,2.88
2023-03-15T01:10:05.433Z,3.08
2023-03-15T01:12:33.442Z,3.23
2023-03-15T01:15:01.636Z,3.26
2023-03-15T01:17:28.348Z,3.23
2023-03-15T01:19:54.876Z,3.30
2023-03-15T01:22:22.422Z,3.27
2023-03-15T01:24:48.884Z,3.23
2023-03-15T01:27:15.333Z,3.01
2023-03-15T01:29:47.669Z,2.98
2023-03-15T01:32:14.432Z,2.95
2023-03-15T01:34:41.080Z,3.05
2023-03-15T01:37:07.656Z,3.06
2023-03-15T01:39:35.117Z,3.08
2023-03-15T01:42:02.351Z,3.15
2023-03-15T01:44:50.062Z,3.13
2023-03-15T01:47:16.635Z,3.15
2023-03-15T01:49:45.363Z,3.00
2023-03-15T01:52:17.741Z,2.86
2023-03-15T01:54:59.545Z,2.94
2023-03-15T01:57:32.566Z,3.06
2023-03-15T02:00:10.614Z,3.02
2023-03-15T02:02:46.886Z,3.03
2023-03-15T02:05:19.489Z,3.02
2023-03-15T02:07:49.943Z,3.05
2023-03-15T02:10:23.216Z,3.13
2023-03-15T02:12:53.021Z,3.11
2023-03-15T02:15:19.678Z,3.09
2023-03-15T02:17:48.236Z,3.04
2023-03-15T02:20:46.087Z,2.96
2023-03-15T02:23:18.835Z,2.75
2023-03-15T02:26:13.595Z,2.81
2023-03-15T02:28:40.936Z,2.69
2023-03-15T02:31:07.494Z,2.60
2023-03-15T02:33:41.771Z,2.68
2023-03-15T02:36:35.489Z,2.65
2023-03-15T02:39:12.925Z,2.77
2023-03-15T02:41:42.470Z,2.80
2023-03-15T02:44:14.031Z,2.62
2023-03-15T02:46:41.988Z,2.61
2023-03-15T02:49:08.792Z,2.72
2023-03-15T02:51:35.340Z,2.70
2023-03-15T02:54:02.819Z,2.72
2023-03-15T02:56:32.093Z,2.75
2023-03-15T02:58:58.514Z,2.77
2023-03-15T03:01:25.134Z,2.83
2023-03-15T03:03:51.623Z,2.81
2023-03-15T03:06:18.556Z,2.61
2023-03-15T03:08:47.262Z,2.77
2023-03-15T03:11:15.572Z,2.74
2023-03-15T03:13:44.217Z,2.78
2023-03-15T03:16:11.263Z,2.73
2023-03-15T03:18:38.685Z,2.73
2023-03-15T03:21:07.337Z,2.91
2023-03-15T03:23:35.988Z,2.71
2023-03-15T03:26:04.218Z,2.80
2023-03-15T03:28:33.298Z,2.78
2023-03-15T03:30:59.823Z,2.75
2023-03-15T03:33:26.406Z,2.86
2023-03-15T03:35:54.179Z,2.89
2023-03-15T03:38:20.965Z,2.89
2023-03-15T03:40:47.540Z,2.86
2023-03-15T03:43:14.016Z,2.79
2023-03-15T03:45:40.512Z,2.92
2023-03-15T03:48:08.968Z,2.86
2023-03-15T03:50:35.524Z,2.80
2023-03-15T03:53:01.947Z,2.80
2023-03-15T03:55:28.376Z,2.87
2023-03-15T03:57:54.857Z,2.79
2023-03-15T04:00:21.647Z,2.78
2023-03-15T04:02:48.209Z,2.81
2023-03-15T04:05:14.822Z,2.77
2023-03-15T04:07:41.534Z,2.68
2023-03-15T04:10:09.129Z,2.68
2023-03-15T04:12:35.643Z,2.68
2023-03-15T04:15:02.191Z,2.53
2023-03-15T04:17:28.657Z,2.57
2023-03-15T04:19:57.177Z,2.57
2023-03-15T04:22:23.659Z,2.53
2023-03-15T04:24:50.704Z,2.46
2023-03-15T04:27:23.021Z,2.33
2023-03-15T04:29:49.482Z,2.41
2023-03-15T04:32:18.018Z,2.26
2023-03-15T04:34:45.578Z,2.31
2023-03-15T04:37:12.054Z,2.36
2023-03-15T04:39:39.141Z,2.30
2023-03-15T04:42:05.871Z,2.19
2023-03-15T04:44:42.529Z,2.17
2023-03-15T04:47:09.688Z,2.16
2023-03-15T04:49:43.977Z,2.09
2023-03-15T04:52:10.468Z,2.05
2023-03-15T04:54:39.319Z,2.01
2023-03-15T04:57:05.949Z,2.04
2023-03-15T04:59:32.497Z,2.08
2023-03-15T05:01:58.988Z,2.04
2023-03-15T05:04:25.489Z,2.00
2023-03-15T05:06:51.898Z,2.03
2023-03-15T05:09:19.232Z,2.09
2023-03-15T05:11:46.502Z,2.01
2023-03-15T05:14:13.930Z,2.16
2023-03-15T05:16:40.627Z,2.17
2023-03-15T05:19:14.294Z,1.98
2023-03-15T05:21:40.752Z,1.96
2023-03-15T05:24:07.302Z,1.92
2023-03-15T05:26:34.935Z,1.92
2023-03-15T05:29:01.364Z,1.92
2023-03-15T05:31:28.292Z,1.88
2023-03-15T05:33:54.745Z,1.87
2023-03-15T05:36:21.760Z,1.87
2023-03-15T05:38:48.353Z,1.79
2023-03-15T05:41:17.961Z,1.83
2023-03-15T05:43:44.486Z,1.79
2023-03-15T05:46:10.953Z,1.78
2023-03-15T05:48:37.440Z,1.86
2023-03-15T05:51:07.174Z,1.84
2023-03-15T05:53:34.102Z,1.90
2023-03-15T05:56:09.093Z,1.92
2023-03-15T05:58:35.680Z,2.01
2023-03-15T06:01:04.431Z,2.02
2023-03-15T06:03:31.759Z,2.07
2023-03-15T06:05:59.333Z,2.03
2023-03-15T06:08:25.744Z,2.10
2023-03-15T06:10:52.209Z,2.13
2023-03-15T06:13:18.943Z,2.26
2023-03-15T06:15:47.228Z,2.33
2023-03-15T06:18:17.434Z,2.63
2023-03-15T06:20:44.403Z,2.73
2023-03-15T06:23:11.114Z,2.93
2023-03-15T06:25:47.739Z,3.07
2023-03-15T06:28:14.288Z,3.62
2023-03-15T06:30:42.289Z,4.10
2023-03-15T06:33:08.808Z,4.51
2023-03-15T06:35:35.396Z,4.61
2023-03-15T06:38:05.038Z,4.73
2023-03-15T06:40:31.724Z,4.85
2023-03-15T06:42:58.165Z,5.11
2023-03-15T06:45:48.603Z,5.04
2023-03-15T06:48:15.300Z,5.73
2023-03-15T06:50:47.256Z,5.03
2023-03-15T06:53:14.712Z,4.59
2023-03-15T06:55:41.165Z,4.05
2023-03-15T06:58:08.006Z,5.08
2023-03-15T07:00:36.129Z,5.87
2023-03-15T07:03:02.697Z,5.09
2023-03-15T07:05:29.563Z,5.63
2023-03-15T07:07:56.194Z,4.92
2023-03-15T07:10:24.014Z,4.60
2023-03-15T07:12:50.437Z,4.42
2023-03-15T07:15:17.586Z,5.27
2023-03-15T07:17:44.213Z,6.42
2023-03-15T07:20:11.426Z,7.34
2023-03-15T07:22:38.637Z,7.41
2023-03-15T07:25:07.410Z,7.61
2023-03-15T07:27:33.953Z,6.70
2023-03-15T07:30:02.774Z,7.34
2023-03-15T07:32:30.921Z,7.69
2023-03-15T07:35:00.508Z,7.55
2023-03-15T07:37:29.258Z,8.15
2023-03-15T07:40:04.784Z,8.23
2023-03-15T07:42:31.229Z,8.57
2023-03-15T07:44:57.741Z,7.63
2023-03-15T07:47:24.157Z,7.54
2023-03-15T07:49:50.787Z,6.37
2023-03-15T07:52:17.521Z,5.70
2023-03-15T07:54:43.935Z,5.39
2023-03-15T07:57:10.697Z,5.81
2023-03-15T07:59:37.166Z,6.14
2023-03-15T08:02:03.805Z,6.94
2023-03-15T08:04:30.529Z,8.06
2023-03-15T08:06:57.066Z,6.60
2023-03-15T08:09:25.007Z,5.76
2023-03-15T08:11:51.538Z,6.85
2023-03-15T08:14:18.474Z,7.45
2023-03-15T08:16:44.953Z,8.15
2023-03-15T08:19:11.464Z,8.37
2023-03-15T08:21:38.050Z,9.08
2023-03-15T08:24:05.884Z,9.17
2023-03-15T08:26:32.334Z,8.75
2023-03-15T08:28:58.741Z,8.55
2023-03-15T08:31:25.353Z,9.16
2023-03-15T08:33:51.815Z,7.56
2023-03-15T08:36:18.310Z,7.91
2023-03-15T08:38:44.940Z,7.57
2023-03-15T08:41:11.367Z,7.04
2023-03-15T08:43:38.116Z,6.42
2023-03-15T08:46:15.577Z,6.67
2023-03-15T08:48:42.096Z,6.37
2023-03-15T08:51:09.072Z,6.12
2023-03-15T08:53:35.692Z,6.74
2023-03-15T08:56:02.131Z,6.13
2023-03-15T08:58:30.728Z,5.67
2023-03-15T09:00:57.458Z,5.58
2023-03-15T09:03:27.345Z,6.65
2023-03-15T09:05:57.893Z,7.44
2023-03-15T09:08:25.549Z,7.88
2023-03-15T09:10:56.263Z,7.43
2023-03-15T09:13:23.664Z,7.18
2023-03-15T09:15:57.014Z,6.39
2023-03-15T09:18:24.640Z,6.45
2023-03-15T09:20:51.191Z,7.41
2023-03-15T09:23:17.662Z,7.27
2023-03-15T09:25:44.139Z,8.18
2023-03-15T09:28:11.519Z,7.44
2023-03-15T09:30:39.527Z,7.66
2023-03-15T09:33:06.092Z,8.12
2023-03-15T09:35:32.596Z,8.27
2023-03-15T09:37:59.087Z,8.55
2023-03-15T09:40:30.747Z,8.64
2023-03-15T09:43:06.115Z,9.45
2023-03-15T09:45:41.576Z,9.96
2023-03-15T09:48:23.955Z,10.10
2023-03-15T09:51:01.212Z,8.02
2023-03-15T09:53:39.549Z,7.79
2023-03-15T09:56:20.199Z,7.23
2023-03-15T09:58:48.242Z,7.43
2023-03-15T10:01:17.230Z,7.90
2023-03-15T10:03:46.643Z,6.11
2023-03-15T10:06:16.828Z,6.98
2023-03-15T10:08:43.324Z,7.11
2023-03-15T10:11:31.740Z,7.32
2023-03-15T10:14:13.142Z,7.39
2023-03-15T10:16:44.413Z,8.09
2023-03-15T10:19:36.085Z,8.25
2023-03-15T10:22:27.620Z,8.04
2023-03-15T10:25:05.132Z,7.95
2023-03-15T10:27:42.425Z,7.77
2023-03-15T10:30:20.042Z,7.34
2023-03-15T10:33:14.077Z,6.76
2023-03-15T10:35:42.802Z,6.78
2023-03-15T10:38:23.467Z,6.65
2023-03-15T10:40:55.854Z,6.29
2023-03-15T10:43:23.899Z,6.40
2023-03-15T10:46:01.721Z,6.22
2023-03-15T10:48:31.197Z,6.54
2023-03-15T10:51:04.593Z,6.31
2023-03-15T10:53:31.134Z,6.40
2023-03-15T10:56:23.622Z,6.70
2023-03-15T10:59:11.010Z,7.30
2023-03-15T11:01:38.353Z,7.64
2023-03-15T11:04:27.380Z,8.35
2023-03-15T11:06:53.760Z,8.39
2023-03-15T11:09:23.534Z,8.50
2023-03-15T11:12:05.093Z,8.20
2023-03-15T11:14:39.403Z,7.39
2023-03-15T11:17:09.268Z,6.77
2023-03-15T11:19:42.452Z,6.01
2023-03-15T11:22:13.807Z,5.52
2023-03-15T11:24:40.717Z,4.54
2023-03-15T11:27:17.756Z,4.35
2023-03-15T11:29:48.712Z,4.15
2023-03-15T11:32:24.380Z,4.13
2023-03-15T11:35:07.696Z,4.31
2023-03-15T11:37:51.181Z,3.92
2023-03-15T11:40:23.538Z,4.12
2023-03-15T11:43:08.812Z,3.90
2023-03-15T11:46:00.205Z,4.01
2023-03-15T11:48:31.535Z,4.25
2023-03-15T11:50:59.452Z,4.29
2023-03-15T11:53:34.192Z,4.28
2023-03-15T11:56:21.942Z,4.31
2023-03-15T11:59:06.403Z,3.81
2023-03-15T12:01:34.741Z,3.79
2023-03-15T12:04:25.732Z,4.11
2023-03-15T12:06:54.243Z,4.33
2023-03-15T12:09:41.502Z,4.25
2023-03-15T12:12:27.202Z,4.44
2023-03-15T12:15:08.409Z,4.58
2023-03-15T12:17:37.341Z,4.78
2023-03-15T12:20:13.113Z,4.46
2023-03-15T12:22:49.643Z,4.41
2023-03-15T12:25:21.022Z,4.52
2023-03-15T12:27:50.908Z,4.58
2023-03-15T12:30:52.805Z,4.33
2023-03-15T12:33:21.333Z,4.45
2023-03-15T12:35:49.726Z,4.85
2023-03-15T12:38:23.496Z,4.78
2023-03-15T12:40:54.945Z,4.80
2023-03-15T12:43:43.286Z,4.31
2023-03-15T12:46:41.297Z,4.22
2023-03-15T12:49:29.654Z,4.38
2023-03-15T12:51:59.708Z,4.17
2023-03-15T12:54:34.796Z,4.24
2023-03-15T12:57:04.442Z,4.11
2023-03-15T12:59:41.264Z,4.55
2023-03-15T13:02:32.463Z,4.54
2023-03-15T13:05:19.836Z,4.71
2023-03-15T13:08:15.526Z,4.59
2023-03-15T13:10:51.786Z,4.78
2023-03-15T13:13:28.903Z,4.52
2023-03-15T13:16:06.406Z,4.93
2023-03-15T13:18:41.974Z,4.85
2023-03-15T13:21:31.570Z,4.65
2023-03-15T13:23:59.653Z,4.79
2023-03-15T13:26:59.317Z,4.36
2023-03-15T13:29:32.316Z,4.55
2023-03-15T13:32:14.133Z,4.55
2023-03-15T13:34:42.232Z,4.55
2023-03-15T13:37:18.052Z,4.55
2023-03-15T13:40:06.093Z,4.51
2023-03-15T13:42:32.757Z,4.40
2023-03-15T13:45:17.753Z,4.55
2023-03-15T13:47:45.873Z,4.50
2023-03-15T13:50:19.315Z,4.25
2023-03-15T13:52:47.254Z,4.40
2023-03-15T13:55:22.532Z,4.41
2023-03-15T13:58:00.076Z,4.30
2023-03-15T14:00:33.848Z,4.33
2023-03-15T14:03:03.471Z,4.13
2023-03-15T14:05:33.555Z,4.28
2023-03-15T14:08:04.037Z,4.16
2023-03-15T14:10:34.309Z,4.19
2023-03-15T14:13:46.239Z,4.02
2023-03-15T14:16:16.484Z,4.18
2023-03-15T14:18:45.221Z,4.27
2023-03-15T14:21:31.109Z,4.23
2023-03-15T14:24:06.370Z,4.29
2023-03-15T14:26:41.011Z,4.25
2023-03-15T14:29:32.726Z,4.34
2023-03-15T14:32:02.492Z,4.29
2023-03-15T14:34:46.557Z,4.34
2023-03-15T14:37:37.890Z,4.22
2023-03-15T14:40:23.037Z,4.35
2023-03-15T14:42:50.895Z,4.47
2023-03-15T14:45:19.298Z,4.50
2023-03-15T14:47:57.264Z,4.75
2023-03-15T14:50:35.454Z,4.63
2023-03-15T14:53:02.951Z,4.65
2023-03-15T14:55:34.851Z,4.89
2023-03-15T14:58:02.206Z,4.80
2023-03-15T15:00:30.217Z,4.54
2023-03-15T15:02:58.811Z,4.49
2023-03-15T15:05:43.669Z,4.38
2023-03-15T15:08:15.566Z,4.23
2023-03-15T15:10:44.094Z,4.19
2023-03-15T15:13:18.554Z,4.21
2023-03-15T15:15:55.076Z,4.46
2023-03-15T15:18:28.594Z,4.59
2023-03-15T15:20:57.366Z,4.75
2023-03-15T15:23:47.455Z,4.57
2023-03-15T15:26:23.629Z,4.61
2023-03-15T15:28:50.153Z,4.57
2023-03-15T15:31:22.795Z,4.76
2023-03-15T15:33:50.704Z,4.58
2023-03-15T15:36:31.202Z,4.47
2023-03-15T15:39:11.197Z,4.31
2023-03-15T15:41:37.622Z,4.51
2023-03-15T15:44:04.163Z,4.41
2023-03-15T15:46:30.761Z,4.64
2023-03-15T15:48:58.819Z,4.36
2023-03-15T15:51:27.847Z,4.50
2023-03-15T15:53:58.285Z,4.46
2023-03-15T15:56:45.770Z,4.24
2023-03-15T15:59:15.129Z,4.21
2023-03-15T16:01:58.974Z,3.92
2023-03-15T16:04:26.576Z,3.90
2023-03-15T16:06:59.122Z,3.93
2023-03-15T16:09:28.257Z,3.91
2023-03-15T16:11:56.979Z,3.82
2023-03-15T16:14:23.449Z,3.87
2023-03-15T16:16:50.069Z,3.84
2023-03-15T16:19:17.084Z,3.90
2023-03-15T16:21:47.766Z,3.67
2023-03-15T16:24:21.691Z,3.84
2023-03-15T16:26:49.676Z,3.74
2023-03-15T16:29:35.292Z,3.71
2023-03-15T16:32:15.932Z,3.46
2023-03-15T16:34:47.107Z,3.50
2023-03-15T16:37:16.150Z,3.63
2023-03-15T16:39:55.635Z,3.60
2023-03-15T16:42:24.366Z,3.50
2023-03-15T16:44:53.793Z,3.60
2023-03-15T16:47:20.624Z,3.65
2023-03-15T16:49:47.127Z,3.53
2023-03-15T16:52:16.038Z,3.44
2023-03-15T16:54:43.988Z,3.37
2023-03-15T16:57:17.086Z,3.30
2023-03-15T16:59:43.632Z,3.23
2023-03-15T17:02:17.246Z,3.09
2023-03-15T17:04:44.037Z,3.10
2023-03-15T17:07:11.538Z,3.00
2023-03-15T17:09:37.992Z,3.03
2023-03-15T17:12:04.650Z,2.93
2023-03-15T17:14:34.969Z,2.91
2023-03-15T17:17:01.413Z,2.92
2023-03-15T17:19:28.848Z,2.93
2023-03-15T17:21:56.903Z,2.98
2023-03-15T17:24:23.507Z,2.80
2023-03-15T17:26:49.956Z,2.86
2023-03-15T17:29:16.779Z,2.79
2023-03-15T17:31:44.559Z,2.70
2023-03-15T17:34:11.118Z,2.89
2023-03-15T17:36:37.763Z,2.76
2023-03-15T17:39:06.765Z,2.65
2023-03-15T17:41:45.224Z,2.50
2023-03-15T17:44:11.861Z,2.62
2023-03-15T17:46:38.377Z,2.60
2023-03-15T17:49:10.047Z,2.53
2023-03-15T17:51:37.688Z,2.51
2023-03-15T17:54:18.278Z,2.52
2023-03-15T17:56:44.828Z,2.46
2023-03-15T17:59:17.765Z,2.42
2023-03-15T18:01:48.809Z,2.35
2023-03-15T18:04:28.217Z,2.22
2023-03-15T18:06:55.324Z,2.28
2023-03-15T18:09:24.120Z,2.25
2023-03-15T18:11:50.936Z,2.39
2023-03-15T18:14:18.870Z,2.53
2023-03-15T18:16:45.536Z,2.30
2023-03-15T18:19:12.062Z,2.13
2023-03-15T18:21:39.677Z,2.21
2023-03-15T18:24:06.447Z,2.33
2023-03-15T18:26:33.375Z,2.05
2023-03-15T18:29:00.977Z,2.01
2023-03-15T18:31:38.335Z,2.29
2023-03-15T18:34:06.657Z,2.34
2023-03-15T18:36:33.252Z,2.53
2023-03-15T18:39:01.793Z,2.54
2023-03-15T18:41:28.279Z,2.43
2023-03-15T18:44:00.934Z,2.39
2023-03-15T18:46:27.652Z,2.32
2023-03-15T18:48:54.221Z,2.46
2023-03-15T18:51:22.976Z,2.23
2023-03-15T18:53:49.672Z,2.30
2023-03-15T18:56:19.412Z,2.31
2023-03-15T18:59:03.594Z,2.31
2023-03-15T19:01:30.157Z,2.29
2023-03-15T19:03:56.814Z,2.26
2023-03-15T19:06:26.188Z,2.22
2023-03-15T19:08:54.343Z,2.23
2023-03-15T19:11:21.929Z,2.09
2023-03-15T19:13:51.000Z,2.08
2023-03-15T19:16:23.187Z,1.98
2023-03-15T19:18:55.312Z,1.87
2023-03-15T19:21:21.867Z,1.79
2023-03-15T19:23:48.337Z,1.88
2023-03-15T19:26:15.919Z,1.94
2023-03-15T19:28:52.544Z,1.90
2023-03-15T19:31:19.074Z,1.92
2023-03-15T19:33:45.564Z,1.67
2023-03-15T19:36:14.319Z,1.83
2023-03-15T19:38:51.902Z,1.83
2023-03-15T19:41:44.475Z,1.90
2023-03-15T19:44:11.398Z,1.82
2023-03-15T19:46:37.917Z,1.79
2023-03-15T19:49:04.413Z,1.80
2023-03-15T19:51:41.466Z,1.75
2023-03-15T19:54:08.084Z,1.80
2023-03-15T19:56:41.896Z,1.82
2023-03-15T19:59:08.664Z,1.81
2023-03-15T20:01:43.127Z,1.78
2023-03-15T20:04:09.704Z,1.66
2023-03-15T20:06:36.401Z,1.70
2023-03-15T20:09:11.254Z,1.75
2023-03-15T20:11:37.773Z,1.66
2023-03-15T20:14:04.668Z,1.60
2023-03-15T20:16:31.283Z,1.65
2023-03-15T20:19:06.667Z,1.61
2023-03-15T20:21:33.759Z,1.64
2023-03-15T20:24:00.586Z,1.64
2023-03-15T20:26:31.191Z,1.72
2023-03-15T20:28:57.620Z,1.71
2023-03-15T20:31:26.142Z,1.72
2023-03-15T20:33:52.850Z,1.63
2023-03-15T20:36:19.674Z,1.59
2023-03-15T20:38:48.219Z,1.45
2023-03-15T20:41:14.893Z,1.60
2023-03-15T20:43:41.922Z,1.47
2023-03-15T20:46:22.462Z,1.50
2023-03-15T20:48:50.120Z,1.52
2023-03-15T20:51:16.563Z,1.39
2023-03-15T20:53:43.085Z,1.43
2023-03-15T20:56:11.576Z,1.36
2023-03-15T20:58:38.182Z,1.17
2023-03-15T21:01:16.689Z,0.96
2023-03-15T21:03:45.216Z,1.18
2023-03-15T21:06:12.207Z,1.28
2023-03-15T21:08:39.159Z,1.15
2023-03-15T21:11:06.729Z,1.25
2023-03-15T21:13:37.470Z,1.40
2023-03-15T21:16:05.221Z,1.33
2023-03-15T21:18:35.954Z,1.29
2023-03-15T21:21:06.388Z,1.48
2023-03-15T21:23:33.538Z,1.45
2023-03-15T21:26:05.267Z,1.39
2023-03-15T21:28:32.234Z,1.24
2023-03-15T21:30:59.457Z,1.30
2023-03-15T21:33:27.975Z,1.23
2023-03-15T21:35:55.776Z,1.41
2023-03-15T21:38:22.419Z,1.44
2023-03-15T21:40:52.553Z,1.39
2023-03-15T21:43:21.013Z,1.41
2023-03-15T21:46:09.317Z,1.15
2023-03-15T21:48:38.045Z,1.22
2023-03-15T21:51:11.181Z,1.15
2023-03-15T21:53:38.685Z,1.17
2023-03-15T21:56:05.428Z,1.16
2023-03-15T21:58:32.728Z,1.02
2023-03-15T22:01:06.299Z,0.96
2023-03-15T22:03:35.330Z,1.06
2023-03-15T22:06:02.591Z,1.28
2023-03-15T22:08:29.162Z,1.20
2023-03-15T22:10:57.444Z,1.18
2023-03-15T22:13:24.840Z,1.13
2023-03-15T22:15:52.359Z,0.99
2023-03-15T22:18:19.493Z,1.03
2023-03-15T22:21:00.868Z,0.99
2023-03-15T22:23:29.500Z,1.09
2023-03-15T22:25:57.199Z,0.96
2023-03-15T22:28:25.201Z,0.94
2023-03-15T22:30:53.874Z,0.82
2023-03-15T22:33:24.623Z,0.82
2023-03-15T22:35:56.206Z,0.72
2023-03-15T22:38:24.393Z,0.68
2023-03-15T22:41:08.600Z,0.93
2023-03-15T22:43:43.299Z,1.00
2023-03-15T22:46:15.768Z,1.04
2023-03-15T22:48:42.639Z,1.05
2023-03-15T22:51:11.321Z,0.99
2023-03-15T22:53:37.848Z,0.94
2023-03-15T22:56:04.970Z,0.88
2023-03-15T22:58:31.753Z,0.75
2023-03-15T23:00:58.217Z,0.75
2023-03-15T23:03:27.696Z,0.62
2023-03-15T23:05:55.524Z,0.65
2023-03-15T23:08:27.287Z,0.83
2023-03-15T23:10:56.971Z,0.76
2023-03-15T23:13:23.443Z,0.81
2023-03-15T23:15:54.345Z,0.89
2023-03-15T23:18:22.046Z,0.89
2023-03-15T23:20:49.647Z,0.78
2023-03-15T23:23:16.171Z,0.82
2023-03-15T23:25:43.225Z,0.69
2023-03-15T23:28:09.699Z,0.30
2023-03-15T23:30:40.002Z,0.36
2023-03-15T23:33:08.942Z,0.37
2023-03-15T23:35:35.825Z,0.22
2023-03-15T23:38:02.446Z,0.23
2023-03-15T23:40:30.134Z,0.10
2023-03-15T23:42:59.327Z,0.19
2023-03-15T23:45:29.426Z,0.07
2023-03-15T23:47:56.783Z,0.22
2023-03-15T23:50:27.429Z,0.17
2023-03-15T23:52:56.111Z,0.21
2023-03-15T23:55:24.061Z,0.44
2023-03-15T23:57:50.862Z,0.43
